sensor_id;sensor_type;location;lat;lon;timestamp;temperature;humidity
32506;DHT22;18955;51.224;8.482;2022-11-20T00:01:16;0.00;78.10
32506;DHT22;18955;51.224;8.482;2022-11-20T00:03:43;0.00;78.10
32506;DHT22;18955;51.224;8.482;2022-11-20T00:06:11;0.00;78.00
32506;DHT22;18955;51.224;8.482;2022-11-20T00:08:38;0.00;78.00
32506;DHT22;18955;51.224;8.482;2022-11-20T00:13:31;-0.10;77.80
32506;DHT22;18955;51.224;8.482;2022-11-20T00:15:59;-0.10;77.90
32506;DHT22;18955;51.224;8.482;2022-11-20T00:18:26;-0.10;77.70
32506;DHT22;18955;51.224;8.482;2022-11-20T00:20:53;-0.10;77.60
32506;DHT22;18955;51.224;8.482;2022-11-20T00:23:19;-0.10;77.60
32506;DHT22;18955;51.224;8.482;2022-11-20T00:25:45;-0.10;77.70
32506;DHT22;18955;51.224;8.482;2022-11-20T00:28:11;-0.10;77.70
32506;DHT22;18955;51.224;8.482;2022-11-20T00:30:38;-0.20;77.60
32506;DHT22;18955;51.224;8.482;2022-11-20T00:33:04;-0.10;77.60
32506;DHT22;18955;51.224;8.482;2022-11-20T00:35:30;-0.20;77.50
32506;DHT22;18955;51.224;8.482;2022-11-20T00:37:56;-0.20;77.40
32506;DHT22;18955;51.224;8.482;2022-11-20T00:40:22;-0.20;77.40
32506;DHT22;18955;51.224;8.482;2022-11-20T00:42:48;-0.20;77.30
32506;DHT22;18955;51.224;8.482;2022-11-20T00:45:15;-0.10;77.30
32506;DHT22;18955;51.224;8.482;2022-11-20T00:47:41;-0.20;77.30
32506;DHT22;18955;51.224;8.482;2022-11-20T00:50:07;-0.30;77.20
32506;DHT22;18955;51.224;8.482;2022-11-20T00:52:33;-0.30;77.30
32506;DHT22;18955;51.224;8.482;2022-11-20T00:55:00;-0.30;77.20
32506;DHT22;18955;51.224;8.482;2022-11-20T00:57:26;-0.30;77.10
32506;DHT22;18955;51.224;8.482;2022-11-20T00:59:52;-0.30;77.20
32506;DHT22;18955;51.224;8.482;2022-11-20T01:02:18;-0.30;77.10
32506;DHT22;18955;51.224;8.482;2022-11-20T01:04:44;-0.30;77.30
32506;DHT22;18955;51.224;8.482;2022-11-20T01:07:11;-0.40;77.20
32506;DHT22;18955;51.224;8.482;2022-11-20T01:09:37;-0.40;77.20
32506;DHT22;18955;51.224;8.482;2022-11-20T01:12:04;-0.40;77.10
32506;DHT22;18955;51.224;8.482;2022-11-20T01:14:30;-0.40;77.60
32506;DHT22;18955;51.224;8.482;2022-11-20T01:16:56;-0.40;77.00
32506;DHT22;18955;51.224;8.482;2022-11-20T01:19:23;-0.40;77.20
32506;DHT22;18955;51.224;8.482;2022-11-20T01:21:52;-0.40;77.20
32506;DHT22;18955;51.224;8.482;2022-11-20T01:24:20;-0.40;77.20
32506;DHT22;18955;51.224;8.482;2022-11-20T01:26:48;-0.50;77.10
32506;DHT22;18955;51.224;8.482;2022-11-20T01:29:22;-0.50;77.10
32506;DHT22;18955;51.224;8.482;2022-11-20T01:31:49;-0.50;77.10
32506;DHT22;18955;51.224;8.482;2022-11-20T01:34:16;-0.50;77.10
32506;DHT22;18955;51.224;8.482;2022-11-20T01:36:43;-0.50;77.20
32506;DHT22;18955;51.224;8.482;2022-11-20T01:39:14;-0.60;77.00
32506;DHT22;18955;51.224;8.482;2022-11-20T01:41:40;-0.60;77.00
32506;DHT22;18955;51.224;8.482;2022-11-20T01:47:14;-0.60;77.20
32506;DHT22;18955;51.224;8.482;2022-11-20T01:49:55;-0.60;77.10
32506;DHT22;18955;51.224;8.482;2022-11-20T01:52:34;-0.60;77.20
32506;DHT22;18955;51.224;8.482;2022-11-20T01:55:17;-0.60;76.90
32506;DHT22;18955;51.224;8.482;2022-11-20T01:57:44;-0.70;77.00
32506;DHT22;18955;51.224;8.482;2022-11-20T02:00:13;-0.70;77.00
32506;DHT22;18955;51.224;8.482;2022-11-20T02:02:48;-0.70;77.00
32506;DHT22;18955;51.224;8.482;2022-11-20T02:07:48;-0.70;77.20
32506;DHT22;18955;51.224;8.482;2022-11-20T02:10:15;-0.70;77.30
32506;DHT22;18955;51.224;8.482;2022-11-20T02:12:41;-0.70;77.40
32506;DHT22;18955;51.224;8.482;2022-11-20T02:15:26;-0.80;77.30
32506;DHT22;18955;51.224;8.482;2022-11-20T02:17:53;-0.70;77.40
32506;DHT22;18955;51.224;8.482;2022-11-20T02:20:19;-0.80;77.30
32506;DHT22;18955;51.224;8.482;2022-11-20T02:22:59;-0.80;77.40
32506;DHT22;18955;51.224;8.482;2022-11-20T02:25:28;-0.80;77.30
32506;DHT22;18955;51.224;8.482;2022-11-20T02:27:56;-0.80;77.40
32506;DHT22;18955;51.224;8.482;2022-11-20T02:30:22;-0.80;77.40
32506;DHT22;18955;51.224;8.482;2022-11-20T02:32:48;-0.80;77.40
32506;DHT22;18955;51.224;8.482;2022-11-20T02:37:53;-0.90;77.40
32506;DHT22;18955;51.224;8.482;2022-11-20T02:40:19;-0.90;77.40
32506;DHT22;18955;51.224;8.482;2022-11-20T02:42:46;-0.90;77.40
32506;DHT22;18955;51.224;8.482;2022-11-20T02:45:12;-0.90;77.50
32506;DHT22;18955;51.224;8.482;2022-11-20T02:47:38;-0.90;77.50
32506;DHT22;18955;51.224;8.482;2022-11-20T02:50:06;-0.90;77.50
32506;DHT22;18955;51.224;8.482;2022-11-20T02:52:32;-0.90;77.50
32506;DHT22;18955;51.224;8.482;2022-11-20T02:54:58;-0.90;77.50
32506;DHT22;18955;51.224;8.482;2022-11-20T02:57:25;-0.90;77.50
32506;DHT22;18955;51.224;8.482;2022-11-20T02:59:51;-1.00;77.50
32506;DHT22;18955;51.224;8.482;2022-11-20T03:02:17;-1.00;77.50
32506;DHT22;18955;51.224;8.482;2022-11-20T03:04:43;-1.00;77.50
32506;DHT22;18955;51.224;8.482;2022-11-20T03:07:09;-1.00;77.50
32506;DHT22;18955;51.224;8.482;2022-11-20T03:09:36;-1.00;77.50
32506;DHT22;18955;51.224;8.482;2022-11-20T03:12:02;-1.00;77.50
32506;DHT22;18955;51.224;8.482;2022-11-20T03:14:28;-1.00;77.60
32506;DHT22;18955;51.224;8.482;2022-11-20T03:16:55;-1.00;77.60
32506;DHT22;18955;51.224;8.482;2022-11-20T03:19:22;-1.00;77.60
32506;DHT22;18955;51.224;8.482;2022-11-20T03:21:48;-1.00;77.60
32506;DHT22;18955;51.224;8.482;2022-11-20T03:24:15;-1.00;77.60
32506;DHT22;18955;51.224;8.482;2022-11-20T03:26:41;-1.10;77.60
32506;DHT22;18955;51.224;8.482;2022-11-20T03:29:07;-1.10;77.50
32506;DHT22;18955;51.224;8.482;2022-11-20T03:31:36;-1.00;77.60
32506;DHT22;18955;51.224;8.482;2022-11-20T03:34:03;-1.10;77.50
32506;DHT22;18955;51.224;8.482;2022-11-20T03:36:30;-1.10;77.50
32506;DHT22;18955;51.224;8.482;2022-11-20T03:38:57;-1.00;77.50
32506;DHT22;18955;51.224;8.482;2022-11-20T03:41:25;-1.10;77.40
32506;DHT22;18955;51.224;8.482;2022-11-20T03:43:57;-1.10;77.50
32506;DHT22;18955;51.224;8.482;2022-11-20T03:46:24;-1.10;77.60
32506;DHT22;18955;51.224;8.482;2022-11-20T03:48:50;-1.10;77.50
32506;DHT22;18955;51.224;8.482;2022-11-20T03:53:48;-1.10;77.40
32506;DHT22;18955;51.224;8.482;2022-11-20T03:56:16;-1.10;77.50
32506;DHT22;18955;51.224;8.482;2022-11-20T03:58:43;-1.10;77.40
32506;DHT22;18955;51.224;8.482;2022-11-20T04:01:21;-1.10;77.50
32506;DHT22;18955;51.224;8.482;2022-11-20T04:03:48;-1.10;77.50
32506;DHT22;18955;51.224;8.482;2022-11-20T04:06:21;-1.10;77.40
32506;DHT22;18955;51.224;8.482;2022-11-20T04:08:48;-1.10;77.40
32506;DHT22;18955;51.224;8.482;2022-11-20T04:11:20;-1.20;77.40
32506;DHT22;18955;51.224;8.482;2022-11-20T04:13:49;-1.20;77.60
32506;DHT22;18955;51.224;8.482;2022-11-20T04:16:16;-1.20;77.60
32506;DHT22;18955;51.224;8.482;2022-11-20T04:18:43;-1.20;77.60
32506;DHT22;18955;51.224;8.482;2022-11-20T04:21:09;-1.20;77.70
32506;DHT22;18955;51.224;8.482;2022-11-20T04:23:36;-1.20;77.70
32506;DHT22;18955;51.224;8.482;2022-11-20T04:26:07;-1.20;77.80
32506;DHT22;18955;51.224;8.482;2022-11-20T04:28:34;-1.10;78.00
32506;DHT22;18955;51.224;8.482;2022-11-20T04:31:06;-0.60;76.20
32506;DHT22;18955;51.224;8.482;2022-11-20T04:33:33;-0.10;74.30
32506;DHT22;18955;51.224;8.482;2022-11-20T04:36:04;-0.10;74.40
32506;DHT22;18955;51.224;8.482;2022-11-20T04:38:31;0.30;73.30
32506;DHT22;18955;51.224;8.482;2022-11-20T04:40:59;0.30;73.20
32506;DHT22;18955;51.224;8.482;2022-11-20T04:43:26;0.40;73.50
32506;DHT22;18955;51.224;8.482;2022-11-20T04:45:53;0.60;72.60
32506;DHT22;18955;51.224;8.482;2022-11-20T04:48:20;0.50;73.30
32506;DHT22;18955;51.224;8.482;2022-11-20T04:50:46;0.80;72.90
32506;DHT22;18955;51.224;8.482;2022-11-20T04:53:12;0.70;72.60
32506;DHT22;18955;51.224;8.482;2022-11-20T04:55:39;0.80;73.00
32506;DHT22;18955;51.224;8.482;2022-11-20T04:58:05;1.10;72.00
32506;DHT22;18955;51.224;8.482;2022-11-20T05:00:31;0.90;72.60
32506;DHT22;18955;51.224;8.482;2022-11-20T05:02:57;1.00;72.70
32506;DHT22;18955;51.224;8.482;2022-11-20T05:05:23;1.10;72.20
32506;DHT22;18955;51.224;8.482;2022-11-20T05:07:50;1.00;72.90
32506;DHT22;18955;51.224;8.482;2022-11-20T05:10:16;1.30;72.20
32506;DHT22;18955;51.224;8.482;2022-11-20T05:12:42;1.20;72.40
32506;DHT22;18955;51.224;8.482;2022-11-20T05:15:09;1.20;72.80
32506;DHT22;18955;51.224;8.482;2022-11-20T05:17:35;1.50;71.80
32506;DHT22;18955;51.224;8.482;2022-11-20T05:20:01;1.30;72.40
32506;DHT22;18955;51.224;8.482;2022-11-20T05:22:27;1.50;72.30
32506;DHT22;18955;51.224;8.482;2022-11-20T05:24:54;1.60;72.00
32506;DHT22;18955;51.224;8.482;2022-11-20T05:27:20;1.40;72.70
32506;DHT22;18955;51.224;8.482;2022-11-20T05:29:46;1.70;72.60
32506;DHT22;18955;51.224;8.482;2022-11-20T05:32:12;1.60;72.30
32506;DHT22;18955;51.224;8.482;2022-11-20T05:34:38;1.70;72.40
32506;DHT22;18955;51.224;8.482;2022-11-20T05:37:04;1.70;72.10
32506;DHT22;18955;51.224;8.482;2022-11-20T05:39:31;1.60;72.70
32506;DHT22;18955;51.224;8.482;2022-11-20T05:41:57;1.90;72.20
32506;DHT22;18955;51.224;8.482;2022-11-20T05:44:41;1.80;72.30
32506;DHT22;18955;51.224;8.482;2022-11-20T05:47:08;1.80;72.60
32506;DHT22;18955;51.224;8.482;2022-11-20T05:49:34;2.20;71.80
32506;DHT22;18955;51.224;8.482;2022-11-20T05:52:00;1.90;72.40
32506;DHT22;18955;51.224;8.482;2022-11-20T05:54:26;2.00;72.30
32506;DHT22;18955;51.224;8.482;2022-11-20T05:56:52;2.10;72.10
32506;DHT22;18955;51.224;8.482;2022-11-20T05:59:18;2.00;72.80
32506;DHT22;18955;51.224;8.482;2022-11-20T06:01:44;2.20;71.90
32506;DHT22;18955;51.224;8.482;2022-11-20T06:04:11;2.10;72.20
32506;DHT22;18955;51.224;8.482;2022-11-20T06:06:37;2.10;72.70
32506;DHT22;18955;51.224;8.482;2022-11-20T06:09:03;2.40;72.00
32506;DHT22;18955;51.224;8.482;2022-11-20T06:11:29;2.10;72.60
32506;DHT22;18955;51.224;8.482;2022-11-20T06:13:55;2.30;72.50
32506;DHT22;18955;51.224;8.482;2022-11-20T06:16:21;2.40;72.00
32506;DHT22;18955;51.224;8.482;2022-11-20T06:18:48;2.20;72.70
32506;DHT22;18955;51.224;8.482;2022-11-20T06:21:16;2.50;72.30
32506;DHT22;18955;51.224;8.482;2022-11-20T06:23:43;2.30;72.30
32506;DHT22;18955;51.224;8.482;2022-11-20T06:26:12;2.30;72.80
32506;DHT22;18955;51.224;8.482;2022-11-20T06:28:38;2.50;72.00
32506;DHT22;18955;51.224;8.482;2022-11-20T06:31:05;2.30;72.70
32506;DHT22;18955;51.224;8.482;2022-11-20T06:33:32;2.50;72.50
32506;DHT22;18955;51.224;8.482;2022-11-20T06:35:59;2.70;72.10
32506;DHT22;18955;51.224;8.482;2022-11-20T06:38:27;2.50;73.00
32506;DHT22;18955;51.224;8.482;2022-11-20T06:40:54;2.70;72.40
32506;DHT22;18955;51.224;8.482;2022-11-20T06:43:21;2.60;72.50
32506;DHT22;18955;51.224;8.482;2022-11-20T06:45:54;2.50;73.10
32506;DHT22;18955;51.224;8.482;2022-11-20T06:48:22;2.80;72.10
32506;DHT22;18955;51.224;8.482;2022-11-20T06:50:49;2.60;72.40
32506;DHT22;18955;51.224;8.482;2022-11-20T06:53:15;2.70;72.80
32506;DHT22;18955;51.224;8.482;2022-11-20T06:55:43;2.80;72.30
32506;DHT22;18955;51.224;8.482;2022-11-20T06:58:10;2.60;72.90
32506;DHT22;18955;51.224;8.482;2022-11-20T07:00:36;2.90;73.20
32506;DHT22;18955;51.224;8.482;2022-11-20T07:03:03;2.90;72.80
32506;DHT22;18955;51.224;8.482;2022-11-20T07:05:30;2.70;73.00
32506;DHT22;18955;51.224;8.482;2022-11-20T07:07:57;3.00;72.50
32506;DHT22;18955;51.224;8.482;2022-11-20T07:10:24;2.90;72.50
32506;DHT22;18955;51.224;8.482;2022-11-20T07:12:51;2.90;73.10
32506;DHT22;18955;51.224;8.482;2022-11-20T07:15:18;3.10;72.40
32506;DHT22;18955;51.224;8.482;2022-11-20T07:17:44;2.90;72.60
32506;DHT22;18955;51.224;8.482;2022-11-20T07:20:11;3.00;73.70
32506;DHT22;18955;51.224;8.482;2022-11-20T07:22:38;3.20;72.10
32506;DHT22;18955;51.224;8.482;2022-11-20T07:25:05;3.00;72.80
32506;DHT22;18955;51.224;8.482;2022-11-20T07:27:32;3.10;72.90
32506;DHT22;18955;51.224;8.482;2022-11-20T07:29:58;3.30;72.20
32506;DHT22;18955;51.224;8.482;2022-11-20T07:32:24;3.00;72.90
32506;DHT22;18955;51.224;8.482;2022-11-20T07:34:50;3.20;73.00
32506;DHT22;18955;51.224;8.482;2022-11-20T07:37:16;3.20;72.60
32506;DHT22;18955;51.224;8.482;2022-11-20T07:39:43;3.10;73.30
32506;DHT22;18955;51.224;8.482;2022-11-20T07:42:09;3.30;72.70
32506;DHT22;18955;51.224;8.482;2022-11-20T07:44:37;3.30;72.80
32506;DHT22;18955;51.224;8.482;2022-11-20T07:47:03;3.30;73.40
32506;DHT22;18955;51.224;8.482;2022-11-20T07:49:29;3.40;72.50
32506;DHT22;18955;51.224;8.482;2022-11-20T07:51:55;3.40;72.90
32506;DHT22;18955;51.224;8.482;2022-11-20T07:54:22;3.20;73.50
32506;DHT22;18955;51.224;8.482;2022-11-20T07:56:49;3.50;72.60
32506;DHT22;18955;51.224;8.482;2022-11-20T07:59:15;3.30;72.90
32506;DHT22;18955;51.224;8.482;2022-11-20T08:01:42;3.30;73.50
32506;DHT22;18955;51.224;8.482;2022-11-20T08:04:08;3.60;72.60
32506;DHT22;18955;51.224;8.482;2022-11-20T08:06:36;3.50;73.10
32506;DHT22;18955;51.224;8.482;2022-11-20T08:09:02;3.40;73.40
32506;DHT22;18955;51.224;8.482;2022-11-20T08:11:29;3.60;72.60
32506;DHT22;18955;51.224;8.482;2022-11-20T08:14:13;3.40;73.20
32506;DHT22;18955;51.224;8.482;2022-11-20T08:16:41;3.60;73.30
32506;DHT22;18955;51.224;8.482;2022-11-20T08:19:08;3.60;72.80
32506;DHT22;18955;51.224;8.482;2022-11-20T08:21:34;3.40;73.50
32506;DHT22;18955;51.224;8.482;2022-11-20T08:24:01;3.70;73.10
32506;DHT22;18955;51.224;8.482;2022-11-20T08:26:27;3.70;72.80
32506;DHT22;18955;51.224;8.482;2022-11-20T08:28:57;3.50;73.60
32506;DHT22;18955;51.224;8.482;2022-11-20T08:31:25;3.80;73.00
32506;DHT22;18955;51.224;8.482;2022-11-20T08:33:53;3.70;72.90
32506;DHT22;18955;51.224;8.482;2022-11-20T08:36:20;3.60;74.20
32506;DHT22;18955;51.224;8.482;2022-11-20T08:38:52;3.90;73.00
32506;DHT22;18955;51.224;8.482;2022-11-20T08:41:18;3.80;73.10
32506;DHT22;18955;51.224;8.482;2022-11-20T08:43:57;3.60;73.70
32506;DHT22;18955;51.224;8.482;2022-11-20T08:46:24;3.90;72.80
32506;DHT22;18955;51.224;8.482;2022-11-20T08:48:51;3.70;73.20
32506;DHT22;18955;51.224;8.482;2022-11-20T08:51:18;3.70;73.80
32506;DHT22;18955;51.224;8.482;2022-11-20T08:53:45;4.00;72.80
32506;DHT22;18955;51.224;8.482;2022-11-20T08:56:11;3.80;73.20
32506;DHT22;18955;51.224;8.482;2022-11-20T08:58:38;3.80;73.90
32506;DHT22;18955;51.224;8.482;2022-11-20T09:01:05;4.00;73.00
32506;DHT22;18955;51.224;8.482;2022-11-20T09:03:31;3.80;74.20
32506;DHT22;18955;51.224;8.482;2022-11-20T09:05:58;3.90;73.90
32506;DHT22;18955;51.224;8.482;2022-11-20T09:08:26;4.10;72.90
32506;DHT22;18955;51.224;8.482;2022-11-20T09:10:52;3.90;73.40
32506;DHT22;18955;51.224;8.482;2022-11-20T09:13:20;3.90;73.80
32506;DHT22;18955;51.224;8.482;2022-11-20T09:15:46;4.20;72.90
32506;DHT22;18955;51.224;8.482;2022-11-20T09:18:12;3.90;73.30
32506;DHT22;18955;51.224;8.482;2022-11-20T09:20:39;4.00;73.90
32506;DHT22;18955;51.224;8.482;2022-11-20T09:23:05;4.20;73.10
32506;DHT22;18955;51.224;8.482;2022-11-20T09:25:31;4.00;73.60
32506;DHT22;18955;51.224;8.482;2022-11-20T09:27:57;4.00;74.00
32506;DHT22;18955;51.224;8.482;2022-11-20T09:30:24;4.20;73.20
32506;DHT22;18955;51.224;8.482;2022-11-20T09:32:50;4.00;73.50
32506;DHT22;18955;51.224;8.482;2022-11-20T09:35:17;4.10;74.00
32506;DHT22;18955;51.224;8.482;2022-11-20T09:37:44;4.30;73.20
32506;DHT22;18955;51.224;8.482;2022-11-20T09:40:29;4.10;74.30
32506;DHT22;18955;51.224;8.482;2022-11-20T09:43:15;4.20;73.60
32506;DHT22;18955;51.224;8.482;2022-11-20T09:54:27;4.30;73.50
32506;DHT22;18955;51.224;8.482;2022-11-20T09:56:59;4.30;74.00
32506;DHT22;18955;51.224;8.482;2022-11-20T10:02:00;4.20;74.30
32506;DHT22;18955;51.224;8.482;2022-11-20T10:04:31;4.40;73.80
32506;DHT22;18955;51.224;8.482;2022-11-20T10:07:37;4.40;73.60
32506;DHT22;18955;51.224;8.482;2022-11-20T10:10:05;4.20;74.50
32506;DHT22;18955;51.224;8.482;2022-11-20T10:16:03;4.50;73.70
32506;DHT22;18955;51.224;8.482;2022-11-20T10:18:42;4.40;74.50
32506;DHT22;18955;51.224;8.482;2022-11-20T10:29:47;4.60;73.60
32506;DHT22;18955;51.224;8.482;2022-11-20T10:32:23;4.50;74.50
32506;DHT22;18955;51.224;8.482;2022-11-20T10:34:59;4.70;73.80
32506;DHT22;18955;51.224;8.482;2022-11-20T10:37:29;4.70;74.30
32506;DHT22;18955;51.224;8.482;2022-11-20T10:40:11;4.50;74.50
32506;DHT22;18955;51.224;8.482;2022-11-20T10:42:48;4.90;73.50
32506;DHT22;18955;51.224;8.482;2022-11-20T10:45:40;4.80;73.50
32506;DHT22;18955;51.224;8.482;2022-11-20T10:48:19;4.60;74.50
32506;DHT22;18955;51.224;8.482;2022-11-20T10:54:47;4.80;73.70
32506;DHT22;18955;51.224;8.482;2022-11-20T10:57:18;4.90;74.30
32506;DHT22;18955;51.224;8.482;2022-11-20T11:00:05;5.00;73.50
32506;DHT22;18955;51.224;8.482;2022-11-20T11:02:36;4.80;74.20
32506;DHT22;18955;51.224;8.482;2022-11-20T11:05:33;5.00;74.20
32506;DHT22;18955;51.224;8.482;2022-11-20T11:07:58;5.10;73.60
32506;DHT22;18955;51.224;8.482;2022-11-20T11:10:32;4.90;74.50
32506;DHT22;18955;51.224;8.482;2022-11-20T11:13:00;5.20;74.10
32506;DHT22;18955;51.224;8.482;2022-11-20T11:15:36;5.20;73.70
32506;DHT22;18955;51.224;8.482;2022-11-20T11:18:03;5.00;74.40
32506;DHT22;18955;51.224;8.482;2022-11-20T11:20:29;5.20;74.30
32506;DHT22;18955;51.224;8.482;2022-11-20T11:22:57;5.30;73.70
32506;DHT22;18955;51.224;8.482;2022-11-20T11:25:36;5.10;74.40
32506;DHT22;18955;51.224;8.482;2022-11-20T11:28:19;5.20;74.40
32506;DHT22;18955;51.224;8.482;2022-11-20T11:30:46;5.40;73.50
32506;DHT22;18955;51.224;8.482;2022-11-20T11:35:54;5.30;74.60
32506;DHT22;18955;51.224;8.482;2022-11-20T11:40:54;5.30;74.30
32506;DHT22;18955;51.224;8.482;2022-11-20T11:43:27;5.30;74.90
32506;DHT22;18955;51.224;8.482;2022-11-20T11:46:33;5.50;73.90
32506;DHT22;18955;51.224;8.482;2022-11-20T11:54:00;5.50;74.20
32506;DHT22;18955;51.224;8.482;2022-11-20T11:56:27;5.30;74.70
32506;DHT22;18955;51.224;8.482;2022-11-20T11:58:57;5.30;75.20
32506;DHT22;18955;51.224;8.482;2022-11-20T12:01:33;5.50;74.30
32506;DHT22;18955;51.224;8.482;2022-11-20T12:09:57;5.60;74.40
32506;DHT22;18955;51.224;8.482;2022-11-20T12:12:36;5.40;74.90
32506;DHT22;18955;51.224;8.482;2022-11-20T12:15:06;5.40;75.30
32506;DHT22;18955;51.224;8.482;2022-11-20T12:17:33;5.70;74.30
32506;DHT22;18955;51.224;8.482;2022-11-20T12:19:59;5.50;74.50
32506;DHT22;18955;51.224;8.482;2022-11-20T12:22:47;5.40;75.30
32506;DHT22;18955;51.224;8.482;2022-11-20T12:30:15;5.40;75.30
32506;DHT22;18955;51.224;8.482;2022-11-20T12:43:55;5.70;74.40
32506;DHT22;18955;51.224;8.482;2022-11-20T12:46:55;5.50;75.10
32506;DHT22;18955;51.224;8.482;2022-11-20T13:00:10;5.90;74.30
32506;DHT22;18955;51.224;8.482;2022-11-20T13:07:56;5.90;74.30
32506;DHT22;18955;51.224;8.482;2022-11-20T13:10:36;5.70;74.80
32506;DHT22;18955;51.224;8.482;2022-11-20T13:13:59;5.70;75.40
32506;DHT22;18955;51.224;8.482;2022-11-20T13:18:43;5.70;74.90
32506;DHT22;18955;51.224;8.482;2022-11-20T13:21:21;5.80;75.50
32506;DHT22;18955;51.224;8.482;2022-11-20T13:23:47;6.00;74.40
32506;DHT22;18955;51.224;8.482;2022-11-20T13:26:19;5.90;74.80
32506;DHT22;18955;51.224;8.482;2022-11-20T13:28:48;5.70;75.50
32506;DHT22;18955;51.224;8.482;2022-11-20T13:31:35;6.00;74.60
32506;DHT22;18955;51.224;8.482;2022-11-20T13:34:04;6.00;74.60
32506;DHT22;18955;51.224;8.482;2022-11-20T13:36:31;5.70;75.30
32506;DHT22;18955;51.224;8.482;2022-11-20T13:38:58;6.00;74.80
32506;DHT22;18955;51.224;8.482;2022-11-20T13:41:26;6.10;74.20
32506;DHT22;18955;51.224;8.482;2022-11-20T13:46:40;5.90;75.50
32506;DHT22;18955;51.224;8.482;2022-11-20T13:51:50;6.00;74.50
32506;DHT22;18955;51.224;8.482;2022-11-20T13:59:58;6.10;74.60
32506;DHT22;18955;51.224;8.482;2022-11-20T14:02:29;5.90;75.50
32506;DHT22;18955;51.224;8.482;2022-11-20T14:04:58;6.10;75.10
32506;DHT22;18955;51.224;8.482;2022-11-20T14:07:39;6.20;74.50
32506;DHT22;18955;51.224;8.482;2022-11-20T14:10:05;6.00;75.10
32506;DHT22;18955;51.224;8.482;2022-11-20T14:12:33;6.00;75.60
32506;DHT22;18955;51.224;8.482;2022-11-20T14:15:00;6.30;74.50
32506;DHT22;18955;51.224;8.482;2022-11-20T14:17:31;6.20;74.70
32506;DHT22;18955;51.224;8.482;2022-11-20T14:20:15;5.90;75.50
32506;DHT22;18955;51.224;8.482;2022-11-20T14:22:51;6.20;74.80
32506;DHT22;18955;51.224;8.482;2022-11-20T14:28:02;6.10;75.00
32506;DHT22;18955;51.224;8.482;2022-11-20T14:30:44;6.10;75.40
32506;DHT22;18955;51.224;8.482;2022-11-20T14:33:12;6.40;74.30
32506;DHT22;18955;51.224;8.482;2022-11-20T14:35:49;6.20;74.70
32506;DHT22;18955;51.224;8.482;2022-11-20T14:38:18;6.00;75.50
32506;DHT22;18955;51.224;8.482;2022-11-20T14:40:44;6.30;74.70
32506;DHT22;18955;51.224;8.482;2022-11-20T14:43:26;6.30;74.50
32506;DHT22;18955;51.224;8.482;2022-11-20T14:48:44;6.20;75.30
32506;DHT22;18955;51.224;8.482;2022-11-20T14:53:50;6.20;74.80
32506;DHT22;18955;51.224;8.482;2022-11-20T14:56:24;6.10;75.60
32506;DHT22;18955;51.224;8.482;2022-11-20T14:58:57;6.40;74.50
32506;DHT22;18955;51.224;8.482;2022-11-20T15:01:28;6.40;74.60
32506;DHT22;18955;51.224;8.482;2022-11-20T15:04:11;6.10;75.00
32506;DHT22;18955;51.224;8.482;2022-11-20T15:06:48;6.30;75.10
32506;DHT22;18955;51.224;8.482;2022-11-20T15:09:15;6.40;74.40
32506;DHT22;18955;51.224;8.482;2022-11-20T15:11:50;6.20;74.90
32506;DHT22;18955;51.224;8.482;2022-11-20T15:14:17;6.10;75.50
32506;DHT22;18955;51.224;8.482;2022-11-20T15:16:44;6.40;74.40
32506;DHT22;18955;51.224;8.482;2022-11-20T15:19:22;6.40;74.60
32506;DHT22;18955;51.224;8.482;2022-11-20T15:21:49;6.20;75.30
32506;DHT22;18955;51.224;8.482;2022-11-20T15:24:16;6.30;75.10
32506;DHT22;18955;51.224;8.482;2022-11-20T15:26:42;6.50;74.40
32506;DHT22;18955;51.224;8.482;2022-11-20T15:29:14;6.30;74.70
32506;DHT22;18955;51.224;8.482;2022-11-20T15:31:40;6.20;75.50
32506;DHT22;18955;51.224;8.482;2022-11-20T15:34:13;6.40;74.50
32506;DHT22;18955;51.224;8.482;2022-11-20T15:36:40;6.40;74.60
32506;DHT22;18955;51.224;8.482;2022-11-20T15:39:07;6.20;75.40
32506;DHT22;18955;51.224;8.482;2022-11-20T15:41:37;6.30;75.30
32506;DHT22;18955;51.224;8.482;2022-11-20T15:44:04;6.40;74.60
32506;DHT22;18955;51.224;8.482;2022-11-20T15:46:32;6.30;74.90
32506;DHT22;18955;51.224;8.482;2022-11-20T15:49:03;6.20;75.60
32506;DHT22;18955;51.224;8.482;2022-11-20T15:51:56;6.50;74.70
32506;DHT22;18955;51.224;8.482;2022-11-20T15:54:22;6.40;74.70
32506;DHT22;18955;51.224;8.482;2022-11-20T15:56:50;6.20;75.50
32506;DHT22;18955;51.224;8.482;2022-11-20T15:59:19;6.40;75.10
32506;DHT22;18955;51.224;8.482;2022-11-20T16:01:45;6.50;74.50
32506;DHT22;18955;51.224;8.482;2022-11-20T16:04:13;6.30;75.00
32506;DHT22;18955;51.224;8.482;2022-11-20T16:06:40;6.30;75.70
32506;DHT22;18955;51.224;8.482;2022-11-20T16:09:06;6.50;74.50
32506;DHT22;18955;51.224;8.482;2022-11-20T16:11:33;6.50;74.70
32506;DHT22;18955;51.224;8.482;2022-11-20T16:14:03;6.30;75.30
32506;DHT22;18955;51.224;8.482;2022-11-20T16:16:48;6.40;75.40
32506;DHT22;18955;51.224;8.482;2022-11-20T16:19:15;6.60;74.40
32506;DHT22;18955;51.224;8.482;2022-11-20T16:21:42;6.40;74.80
32506;DHT22;18955;51.224;8.482;2022-11-20T16:24:12;6.20;75.50
32506;DHT22;18955;51.224;8.482;2022-11-20T16:26:39;6.50;74.80
32506;DHT22;18955;51.224;8.482;2022-11-20T16:29:06;6.60;74.40
32506;DHT22;18955;51.224;8.482;2022-11-20T16:31:33;6.40;75.10
32506;DHT22;18955;51.224;8.482;2022-11-20T16:34:01;6.30;75.60
32506;DHT22;18955;51.224;8.482;2022-11-20T16:36:28;6.60;74.40
32506;DHT22;18955;51.224;8.482;2022-11-20T16:38:57;6.50;74.50
32506;DHT22;18955;51.224;8.482;2022-11-20T16:41:25;6.30;75.30
32506;DHT22;18955;51.224;8.482;2022-11-20T16:43:54;6.40;75.20
32506;DHT22;18955;51.224;8.482;2022-11-20T16:46:21;6.60;74.30
32506;DHT22;18955;51.224;8.482;2022-11-20T16:51:21;6.30;75.60
32506;DHT22;18955;51.224;8.482;2022-11-20T16:53:49;6.60;74.60
32506;DHT22;18955;51.224;8.482;2022-11-20T16:56:18;6.60;74.60
32506;DHT22;18955;51.224;8.482;2022-11-20T16:58:45;6.30;75.00
32506;DHT22;18955;51.224;8.482;2022-11-20T17:01:14;6.40;75.40
32506;DHT22;18955;51.224;8.482;2022-11-20T17:03:42;6.70;74.20
32506;DHT22;18955;51.224;8.482;2022-11-20T17:06:20;6.50;74.90
32506;DHT22;18955;51.224;8.482;2022-11-20T17:08:47;6.30;75.30
32506;DHT22;18955;51.224;8.482;2022-11-20T17:11:14;6.60;74.90
32506;DHT22;18955;51.224;8.482;2022-11-20T17:13:41;6.70;74.40
32506;DHT22;18955;51.224;8.482;2022-11-20T17:16:10;6.50;74.90
32506;DHT22;18955;51.224;8.482;2022-11-20T17:18:37;6.40;75.50
32506;DHT22;18955;51.224;8.482;2022-11-20T17:21:03;6.60;74.70
32506;DHT22;18955;51.224;8.482;2022-11-20T17:23:34;6.60;74.50
32506;DHT22;18955;51.224;8.482;2022-11-20T17:26:12;6.40;74.90
32506;DHT22;18955;51.224;8.482;2022-11-20T17:28:46;6.40;75.50
32506;DHT22;18955;51.224;8.482;2022-11-20T17:31:17;6.70;74.30
32506;DHT22;18955;51.224;8.482;2022-11-20T17:33:45;6.50;74.60
32506;DHT22;18955;51.224;8.482;2022-11-20T17:36:14;6.40;75.50
32506;DHT22;18955;51.224;8.482;2022-11-20T17:38:40;6.70;74.80
32506;DHT22;18955;51.224;8.482;2022-11-20T17:41:07;6.70;74.30
32506;DHT22;18955;51.224;8.482;2022-11-20T17:43:35;6.50;74.70
32506;DHT22;18955;51.224;8.482;2022-11-20T17:46:11;6.30;75.50
32506;DHT22;18955;51.224;8.482;2022-11-20T17:48:38;6.70;74.60